Time,TemperatureF,DewpointF,PressureIn,WindDirection,WindDirectionDegrees,WindSpeedMPH,WindSpeedGustMPH,Humidity,HourlyPrecipIn,Conditions,Clouds,dailyrainin,SolarRadiationWatts/m^2,SoftwareType,DateUTC
2013-08-24 00:00:00,59.2,53.7,30.08,NE,49,1.2,0.0,82,0.00,CLR,,0.00,0.0,WeatherDisplay:10.37,2013-08-23 22:00:00,
2013-08-24 00:05:00,59.4,54.2,30.08,NE,49,2.3,2.3,83,0.00,CLR,,0.00,0.0,WeatherDisplay:10.37,2013-08-23 22:05:00,
2013-08-24 00:10:00,59.1,53.9,30.08,NE,49,1.2,1.2,83,0.00,CLR,,0.00,0.0,WeatherDisplay:10.37,2013-08-23 22:10:00,
2013-08-24 00:15:00,58.8,54.0,30.08,NE,49,0.0,0.0,84,0.00,CLR,,0.00,0.0,WeatherDisplay:10.37,2013-08-23 22:15:00,
2013-08-24 00:20:00,58.6,53.8,30.08,NE,49,0.0,0.0,84,0.00,CLR,,0.00,0.0,WeatherDisplay:10.37,2013-08-23 22:20:00,
2013-08-24 00:25:00,58.3,53.5,30.07,NE,49,0.0,0.0,84,0.00,CLR,,0.00,0.0,WeatherDisplay:10.37,2013-08-23 22:25:00,
2013-08-24 00:30:00,58.4,53.6,30.07,NE,49,0.0,0.0,84,0.00,CLR,,0.00,0.0,WeatherDisplay:10.37,2013-08-23 22:30:00,
2013-08-24 00:35:00,58.5,53.7,30.07,NE,49,0.0,0.0,84,0.00,CLR,,0.00,0.0,WeatherDisplay:10.37,2013-08-23 22:35:00,
2013-08-24 00:40:00,58.3,53.5,30.07,NE,49,0.0,0.0,84,0.00,CLR,,0.00,0.0,WeatherDisplay:10.37,2013-08-23 22:40:00,
2013-08-24 00:45:00,58.1,53.3,30.07,NE,49,0.0,0.0,84,0.00,CLR,,0.00,0.0,WeatherDisplay:10.37,2013-08-23 22:45:00,
2013-08-24 00:50:00,57.9,53.4,30.07,NE,49,0.0,0.0,85,0.00,CLR,,0.00,0.0,WeatherDisplay:10.37,2013-08-23 22:50:00,
2013-08-24 00:55:00,58.1,53.3,30.07,NE,49,0.0,0.0,84,0.00,CLR,,0.00,0.0,WeatherDisplay:10.37,2013-08-23 22:55:00,
2013-08-24 01:00:00,58.2,53.4,30.07,NE,49,1.0,0.0,84,0.00,CLR,,0.00,0.0,WeatherDisplay:10.37,2013-08-23 23:00:00,
2013-08-24 01:05:00,58.1,53.3,30.07,NE,49,1.2,1.2,84,0.00,CLR,,0.00,0.0,WeatherDisplay:10.37,2013-08-23 23:05:00,
2013-08-24 01:10:00,58.2,53.4,30.07,NE,49,1.2,1.2,84,0.00,CLR,,0.00,0.0,WeatherDisplay:10.37,2013-08-23 23:10:00,
2013-08-24 01:15:00,58.0,53.2,30.07,NE,49,1.2,1.2,84,0.00,CLR,,0.00,0.0,WeatherDisplay:10.37,2013-08-23 23:15:00,
2013-08-24 01:20:00,57.5,53.0,30.07,NE,49,1.2,0.0,85,0.00,CLR,,0.00,0.0,WeatherDisplay:10.37,2013-08-23 23:20:00,
2013-08-24 01:25:00,57.2,52.7,30.07,NE,49,1.2,1.2,85,0.00,CLR,,0.00,0.0,WeatherDisplay:10.37,2013-08-23 23:25:00,
2013-08-24 01:30:00,57.1,52.6,30.07,NE,49,2.3,2.3,85,0.00,CLR,,0.00,0.0,WeatherDisplay:10.37,2013-08-23 23:30:00,
2013-08-24 01:35:00,57.1,52.6,30.07,NE,49,1.2,0.0,85,0.00,CLR,,0.00,0.0,WeatherDisplay:10.37,2013-08-23 23:35:00,
2013-08-24 01:40:00,57.1,52.6,30.07,NE,49,0.0,0.0,85,0.00,CLR,,0.00,0.0,WeatherDisplay:10.37,2013-08-23 23:40:00,
2013-08-24 01:45:00,57.2,52.7,30.07,NE,49,0.0,0.0,85,0.00,CLR,,0.00,0.0,WeatherDisplay:10.37,2013-08-23 23:45:00,
2013-08-24 01:50:00,57.2,52.7,30.06,NE,49,0.0,0.0,85,0.00,CLR,,0.00,0.0,WeatherDisplay:10.37,2013-08-23 23:50:00,
2013-08-24 01:55:00,57.2,52.7,30.06,NE,49,0.0,0.0,85,0.00,CLR,,0.00,0.0,WeatherDisplay:10.37,2013-08-23 23:55:00,
2013-08-24 02:00:00,57.1,52.6,30.06,NE,49,0.0,0.0,85,0.00,CLR,,0.00,0.0,WeatherDisplay:10.37,2013-08-24 00:00:00,
2013-08-24 02:05:00,57.0,52.5,30.06,NE,49,0.0,0.0,85,0.00,CLR,,0.00,0.0,WeatherDisplay:10.37,2013-08-24 00:05:00,
2013-08-24 02:10:00,57.0,52.5,30.06,NE,49,1.2,0.0,85,0.00,CLR,,0.00,0.0,WeatherDisplay:10.37,2013-08-24 00:10:00,
2013-08-24 02:15:00,56.9,52.4,30.06,NE,49,0.0,0.0,85,0.00,CLR,,0.00,0.0,WeatherDisplay:10.37,2013-08-24 00:15:00,
2013-08-24 02:20:00,57.0,52.5,30.06,NE,49,0.0,0.0,85,0.00,CLR,,0.00,0.0,WeatherDisplay:10.37,2013-08-24 00:20:00,
2013-08-24 02:25:00,56.9,52.4,30.06,NE,49,0.0,0.0,85,0.00,CLR,,0.00,0.0,WeatherDisplay:10.37,2013-08-24 00:25:00,
2013-08-24 02:30:00,56.8,52.3,30.06,NE,49,0.0,0.0,85,0.00,CLR,,0.00,0.0,WeatherDisplay:10.37,2013-08-24 00:30:00,
2013-08-24 02:35:00,56.7,52.2,30.06,NE,49,2.3,2.3,85,0.00,CLR,,0.00,0.0,WeatherDisplay:10.37,2013-08-24 00:35:00,
2013-08-24 02:40:00,56.7,52.6,30.06,NE,49,0.0,0.0,86,0.00,CLR,,0.00,0.0,WeatherDisplay:10.37,2013-08-24 00:40:00,
2013-08-24 02:45:00,56.7,52.2,30.06,NE,49,0.0,0.0,85,0.00,CLR,,0.00,0.0,WeatherDisplay:10.37,2013-08-24 00:45:00,
2013-08-24 02:50:00,56.7,52.2,30.06,NE,49,0.0,0.0,85,0.00,CLR,,0.00,0.0,WeatherDisplay:10.37,2013-08-24 00:50:00,
2013-08-24 02:55:00,56.6,52.1,30.06,NE,49,0.0,0.0,85,0.00,CLR,,0.00,0.0,WeatherDisplay:10.37,2013-08-24 00:55:00,
2013-08-24 03:00:00,56.6,52.1,30.06,NE,49,2.3,2.3,85,0.00,CLR,,0.00,0.0,WeatherDisplay:10.37,2013-08-24 01:00:00,
2013-08-24 03:05:00,56.5,52.4,30.06,NE,49,3.0,3.0,86,0.00,CLR,,0.00,0.0,WeatherDisplay:10.37,2013-08-24 01:05:00,
2013-08-24 03:10:00,56.3,51.8,30.06,NE,49,2.3,2.3,85,0.00,CLR,,0.00,0.0,WeatherDisplay:10.37,2013-08-24 01:10:00,
2013-08-24 03:15:00,56.2,51.7,30.06,NE,49,0.0,0.0,85,0.00,CLR,,0.00,0.0,WeatherDisplay:10.37,2013-08-24 01:15:00,
2013-08-24 03:20:00,56.4,52.3,30.06,NE,49,0.0,0.0,86,0.00,CLR,,0.00,0.0,WeatherDisplay:10.37,2013-08-24 01:20:00,
2013-08-24 03:25:00,56.3,51.8,30.06,NE,49,1.2,0.0,85,0.00,CLR,,0.00,0.0,WeatherDisplay:10.37,2013-08-24 01:25:00,
2013-08-24 03:30:00,56.1,51.7,30.06,NE,49,2.3,2.3,85,0.00,CLR,,0.00,0.0,WeatherDisplay:10.37,2013-08-24 01:30:00,
2013-08-24 03:35:00,56.1,51.7,30.05,NE,49,2.3,0.0,85,0.00,CLR,,0.00,0.0,WeatherDisplay:10.37,2013-08-24 01:35:00,
2013-08-24 03:40:00,55.9,51.5,30.05,NE,49,1.2,1.2,85,0.00,CLR,,0.00,0.0,WeatherDisplay:10.37,2013-08-24 01:40:00,
2013-08-24 03:45:00,55.9,51.8,30.05,NE,49,1.2,1.2,86,0.00,CLR,,0.00,0.0,WeatherDisplay:10.37,2013-08-24 01:45:00,
2013-08-24 03:50:00,55.9,51.8,30.05,NE,49,0.0,0.0,86,0.00,CLR,,0.00,0.0,WeatherDisplay:10.37,2013-08-24 01:50:00,
2013-08-24 03:55:00,55.8,51.7,30.05,NE,49,0.0,0.0,86,0.00,CLR,,0.00,0.0,WeatherDisplay:10.37,2013-08-24 01:55:00,
2013-08-24 04:00:00,55.7,51.3,30.05,NE,49,1.2,1.2,85,0.00,CLR,,0.00,0.0,WeatherDisplay:10.37,2013-08-24 02:00:00,
2013-08-24 04:05:00,55.6,51.2,30.05,NE,49,2.3,2.3,85,0.00,CLR,,0.00,0.0,WeatherDisplay:10.37,2013-08-24 02:05:00,
2013-08-24 04:10:00,55.6,51.5,30.05,NE,49,1.2,0.0,86,0.00,CLR,,0.00,0.0,WeatherDisplay:10.37,2013-08-24 02:10:00,
2013-08-24 04:15:00,55.2,50.8,30.05,NE,49,1.0,0.0,85,0.00,CLR,,0.00,0.0,WeatherDisplay:10.37,2013-08-24 02:15:00,
2013-08-24 04:20:00,55.0,50.6,30.05,NE,49,0.0,0.0,85,0.00,CLR,,0.00,0.0,WeatherDisplay:10.37,2013-08-24 02:20:00,
2013-08-24 04:25:00,55.0,50.6,30.04,NE,49,0.0,0.0,85,0.00,CLR,,0.00,0.0,WeatherDisplay:10.37,2013-08-24 02:25:00,
2013-08-24 04:30:00,54.9,50.5,30.04,NE,49,0.0,0.0,85,0.00,CLR,,0.00,0.0,WeatherDisplay:10.37,2013-08-24 02:30:00,
2013-08-24 04:35:00,54.8,50.4,30.04,NE,49,0.0,0.0,85,0.00,CLR,,0.00,0.0,WeatherDisplay:10.37,2013-08-24 02:35:00,
2013-08-24 04:40:00,54.8,50.4,30.04,NE,49,1.2,0.0,85,0.00,CLR,,0.00,0.0,WeatherDisplay:10.37,2013-08-24 02:40:00,
2013-08-24 04:45:00,54.7,50.3,30.04,NE,49,0.0,0.0,85,0.00,CLR,,0.00,0.0,WeatherDisplay:10.37,2013-08-24 02:45:00,
2013-08-24 04:50:00,54.5,50.1,30.04,NE,49,0.0,0.0,85,0.00,CLR,,0.00,0.0,WeatherDisplay:10.37,2013-08-24 02:50:00,
2013-08-24 04:55:00,54.3,50.2,30.04,NE,49,0.0,0.0,86,0.00,CLR,,0.00,0.0,WeatherDisplay:10.37,2013-08-24 02:55:00,
2013-08-24 05:00:00,53.9,49.5,30.04,NE,49,0.0,0.0,85,0.00,CLR,,0.00,0.0,WeatherDisplay:10.37,2013-08-24 03:00:00,
2013-08-24 05:05:00,53.5,49.1,30.04,NE,49,0.0,0.0,85,0.00,CLR,,0.00,0.0,WeatherDisplay:10.37,2013-08-24 03:05:00,
2013-08-24 05:10:00,53.5,49.1,30.04,NE,49,0.0,0.0,85,0.00,CLR,,0.00,0.0,WeatherDisplay:10.37,2013-08-24 03:10:00,
2013-08-24 05:15:00,53.4,49.0,30.03,NE,49,0.0,0.0,85,0.00,CLR,,0.00,0.0,WeatherDisplay:10.37,2013-08-24 03:15:00,
2013-08-24 05:20:00,53.2,48.8,30.04,NE,49,0.0,0.0,85,0.00,CLR,,0.00,0.0,WeatherDisplay:10.37,2013-08-24 03:20:00,
2013-08-24 05:25:00,53.3,48.9,30.04,NE,49,0.0,0.0,85,0.00,CLR,,0.00,0.0,WeatherDisplay:10.37,2013-08-24 03:25:00,
2013-08-24 05:30:00,53.1,48.7,30.03,NE,49,0.0,0.0,85,0.00,CLR,,0.00,0.0,WeatherDisplay:10.37,2013-08-24 03:30:00,
2013-08-24 05:35:00,53.0,48.6,30.03,NE,49,0.0,0.0,85,0.00,CLR,,0.00,0.0,WeatherDisplay:10.37,2013-08-24 03:35:00,
2013-08-24 05:40:00,52.7,48.3,30.03,NE,49,0.0,0.0,85,0.00,CLR,,0.00,0.0,WeatherDisplay:10.37,2013-08-24 03:40:00,
2013-08-24 05:45:00,52.5,48.1,30.03,NE,49,1.0,0.0,85,0.00,CLR,,0.00,0.0,WeatherDisplay:10.37,2013-08-24 03:45:00,
2013-08-24 05:50:00,52.1,47.7,30.03,NE,49,1.2,0.0,85,0.00,CLR,,0.00,0.0,WeatherDisplay:10.37,2013-08-24 03:50:00,
2013-08-24 05:55:00,52.1,47.7,30.03,NE,49,0.0,0.0,85,0.00,CLR,,0.00,0.0,WeatherDisplay:10.37,2013-08-24 03:55:00,
2013-08-24 06:00:00,52.0,47.6,30.03,NE,49,0.0,0.0,85,0.00,OVC,,0.00,0.0,WeatherDisplay:10.37,2013-08-24 04:00:00,
2013-08-24 06:01:00,52.1,47.7,30.03,NE,49,0.0,0.0,85,0.00,OVC,,0.00,0.0,WeatherDisplay:10.37,2013-08-24 04:01:00,
2013-08-24 06:02:00,52.1,47.7,30.04,NE,49,0.0,0.0,85,0.00,OVC,,0.00,0.0,WeatherDisplay:10.37,2013-08-24 04:02:00,
2013-08-24 06:04:00,52.0,47.6,30.03,NE,49,0.0,0.0,85,0.00,OVC,,0.00,0.0,WeatherDisplay:10.37,2013-08-24 04:04:00,
2013-08-24 06:06:00,52.1,47.7,30.03,NE,49,0.0,0.0,85,0.00,OVC,,0.00,0.0,WeatherDisplay:10.37,2013-08-24 04:06:00,
2013-08-24 06:08:00,52.0,47.6,30.03,NE,49,0.0,0.0,85,0.00,OVC,,0.00,0.0,WeatherDisplay:10.37,2013-08-24 04:08:00,
2013-08-24 06:13:00,52.0,47.6,30.03,NE,49,0.0,0.0,85,0.00,OVC,,0.00,5.0,WeatherDisplay:10.37,2013-08-24 04:13:00,
2013-08-24 06:18:00,52.0,47.6,30.04,NE,49,1.2,1.2,85,0.00,OVC,,0.00,7.0,WeatherDisplay:10.37,2013-08-24 04:18:00,
2013-08-24 06:23:00,52.1,47.7,30.04,NE,49,2.3,2.3,85,0.00,OVC,,0.00,9.0,WeatherDisplay:10.37,2013-08-24 04:23:00,
2013-08-24 06:28:00,52.1,47.7,30.03,NE,49,1.2,1.2,85,0.00,OVC,,0.00,11.0,WeatherDisplay:10.37,2013-08-24 04:28:00,
2013-08-24 06:33:00,52.1,47.7,30.03,NE,49,1.2,0.0,85,0.00,OVC,,0.00,12.0,WeatherDisplay:10.37,2013-08-24 04:33:00,
2013-08-24 06:38:00,52.2,47.8,30.04,NE,49,0.0,0.0,85,0.00,OVC,,0.00,14.0,WeatherDisplay:10.37,2013-08-24 04:38:00,
2013-08-24 06:43:00,52.2,47.8,30.03,NE,49,0.0,0.0,85,0.00,OVC,,0.00,16.0,WeatherDisplay:10.37,2013-08-24 04:43:00,
2013-08-24 06:48:00,52.1,47.7,30.03,NE,49,0.0,0.0,85,0.00,OVC,,0.00,18.0,WeatherDisplay:10.37,2013-08-24 04:48:00,
2013-08-24 06:53:00,52.2,47.5,30.03,NE,49,0.0,0.0,84,0.00,OVC,,0.00,19.0,WeatherDisplay:10.37,2013-08-24 04:53:00,
2013-08-24 06:58:00,52.3,47.9,30.03,NE,49,0.0,0.0,85,0.00,OVC,,0.00,21.0,WeatherDisplay:10.37,2013-08-24 04:58:00,
2013-08-24 07:03:00,52.5,48.1,30.03,NE,49,0.0,0.0,85,0.00,OVC,,0.00,25.0,WeatherDisplay:10.37,2013-08-24 05:03:00,
2013-08-24 07:08:00,52.4,48.0,30.04,NE,49,0.0,0.0,85,0.00,OVC,,0.00,28.0,WeatherDisplay:10.37,2013-08-24 05:08:00,
2013-08-24 07:13:00,52.5,48.1,30.04,NE,49,1.2,1.2,85,0.00,OVC,,0.00,37.0,WeatherDisplay:10.37,2013-08-24 05:13:00,
2013-08-24 07:18:00,52.8,48.4,30.04,NE,49,0.0,0.0,85,0.00,OVC,,0.00,47.0,WeatherDisplay:10.37,2013-08-24 05:18:00,
2013-08-24 07:23:00,53.2,48.8,30.04,NE,49,0.0,0.0,85,0.00,OVC,,0.00,51.0,WeatherDisplay:10.37,2013-08-24 05:23:00,
2013-08-24 07:28:00,53.6,49.2,30.03,NE,49,0.0,0.0,85,0.00,OVC,,0.00,53.0,WeatherDisplay:10.37,2013-08-24 05:28:00,
2013-08-24 07:33:00,53.9,49.5,30.03,NE,49,0.0,0.0,85,0.00,OVC,,0.00,53.0,WeatherDisplay:10.37,2013-08-24 05:33:00,
2013-08-24 07:38:00,54.2,49.8,30.03,NE,49,1.2,1.2,85,0.00,OVC,,0.00,65.0,WeatherDisplay:10.37,2013-08-24 05:38:00,
2013-08-24 07:43:00,54.4,50.0,30.03,NE,49,0.0,0.0,85,0.00,OVC,,0.00,81.0,WeatherDisplay:10.37,2013-08-24 05:43:00,
2013-08-24 07:48:00,54.8,50.4,30.03,NE,49,2.3,2.3,85,0.00,OVC,,0.00,88.0,WeatherDisplay:10.37,2013-08-24 05:48:00,
2013-08-24 07:53:00,55.3,51.2,30.04,NE,49,1.2,0.0,86,0.00,OVC,,0.00,91.0,WeatherDisplay:10.37,2013-08-24 05:53:00,
2013-08-24 07:58:00,55.9,51.8,30.03,NE,49,1.2,1.2,86,0.00,OVC,,0.00,91.0,WeatherDisplay:10.37,2013-08-24 05:58:00,
2013-08-24 08:03:00,56.5,52.4,30.03,NE,49,0.0,0.0,86,0.00,OVC,,0.00,120.0,WeatherDisplay:10.37,2013-08-24 06:03:00,
2013-08-24 08:08:00,58.0,53.8,30.04,NE,49,1.2,1.2,86,0.00,SCT,,0.00,251.0,WeatherDisplay:10.37,2013-08-24 06:08:00,
2013-08-24 08:13:00,59.6,55.1,30.04,NE,49,1.2,0.0,85,0.00,SCT,,0.00,265.0,WeatherDisplay:10.37,2013-08-24 06:13:00,
2013-08-24 08:18:00,60.7,55.8,30.04,NE,49,2.3,2.3,84,0.00,SCT,,0.00,234.0,WeatherDisplay:10.37,2013-08-24 06:18:00,
2013-08-24 08:23:00,61.0,55.8,30.04,NE,49,1.2,1.2,83,0.00,SCT,,0.00,295.0,WeatherDisplay:10.37,2013-08-24 06:23:00,
2013-08-24 08:28:00,61.9,56.3,30.03,NE,49,1.2,1.2,82,0.00,SCT,,0.00,301.0,WeatherDisplay:10.37,2013-08-24 06:28:00,
2013-08-24 08:33:00,62.7,56.8,30.03,NE,49,1.2,1.2,81,0.00,SCT,,0.00,308.0,WeatherDisplay:10.37,2013-08-24 06:33:00,
2013-08-24 08:38:00,62.7,55.7,30.04,NE,49,1.2,1.2,78,0.00,SCT,,0.00,322.0,WeatherDisplay:10.37,2013-08-24 06:38:00,
2013-08-24 08:43:00,63.7,56.7,30.03,NE,49,2.3,2.3,78,0.00,SCT,,0.00,334.0,WeatherDisplay:10.37,2013-08-24 06:43:00,
2013-08-24 08:48:00,64.8,57.1,30.03,NE,49,1.2,0.0,76,0.00,FEW,,0.00,350.0,WeatherDisplay:10.37,2013-08-24 06:48:00,
2013-08-24 08:53:00,65.3,57.5,30.03,NE,49,1.2,1.2,76,0.00,FEW,,0.00,373.0,WeatherDisplay:10.37,2013-08-24 06:53:00,
2013-08-24 08:58:00,65.7,56.4,30.03,NE,49,4.0,4.0,72,0.00,FEW,,0.00,392.0,WeatherDisplay:10.37,2013-08-24 06:58:00,
2013-08-24 09:03:00,65.8,56.5,30.03,NE,49,2.3,2.3,72,0.00,FEW,,0.00,404.0,WeatherDisplay:10.37,2013-08-24 07:03:00,
2013-08-24 09:08:00,66.0,56.7,30.03,NE,49,4.0,4.0,72,0.00,FEW,,0.00,417.0,WeatherDisplay:10.37,2013-08-24 07:08:00,
2013-08-24 09:13:00,65.3,56.0,30.03,NE,49,3.5,3.5,72,0.00,SCT,,0.00,320.0,WeatherDisplay:10.37,2013-08-24 07:13:00,
2013-08-24 09:18:00,65.3,56.0,30.03,NE,52,4.0,4.0,72,0.00,BKN,,0.00,279.0,WeatherDisplay:10.37,2013-08-24 07:18:00,
2013-08-24 09:23:00,64.8,56.3,30.03,East,83,5.8,5.8,74,0.00,SCT,,0.00,366.0,WeatherDisplay:10.37,2013-08-24 07:23:00,
2013-08-24 09:28:00,65.8,56.5,30.02,East,79,4.0,4.0,72,0.00,FEW,,0.00,497.0,WeatherDisplay:10.37,2013-08-24 07:28:00,
2013-08-24 09:33:00,67.1,58.5,30.02,NE,50,5.0,5.0,74,0.00,FEW,,0.00,515.0,WeatherDisplay:10.37,2013-08-24 07:33:00,
2013-08-24 09:38:00,66.8,57.1,30.03,ENE,78,4.6,4.6,71,0.00,FEW,,0.00,534.0,WeatherDisplay:10.37,2013-08-24 07:38:00,
2013-08-24 09:43:00,67.0,56.9,30.02,East,82,5.0,5.0,70,0.00,FEW,,0.00,557.0,WeatherDisplay:10.37,2013-08-24 07:43:00,
2013-08-24 09:48:00,67.4,57.7,30.02,East,98,9.2,9.2,71,0.00,FEW,,0.00,547.0,WeatherDisplay:10.37,2013-08-24 07:48:00,
2013-08-24 09:53:00,68.0,57.0,30.03,ENE,65,6.0,6.0,68,0.00,FEW,,0.00,568.0,WeatherDisplay:10.37,2013-08-24 07:53:00,
2013-08-24 09:58:00,67.5,56.6,30.02,ENE,71,5.8,5.8,68,0.00,FEW,,0.00,563.0,WeatherDisplay:10.37,2013-08-24 07:58:00,
2013-08-24 10:03:00,67.0,56.9,30.02,NNE,30,6.9,6.9,70,0.00,BKN,,0.00,287.0,WeatherDisplay:10.37,2013-08-24 08:03:00,
2013-08-24 10:08:00,66.5,56.4,30.02,ENE,74,5.0,5.0,70,0.00,SCT,,0.00,383.0,WeatherDisplay:10.37,2013-08-24 08:08:00,
2013-08-24 10:13:00,67.1,57.4,30.02,NE,48,7.0,7.0,71,0.00,SCT,,0.00,462.0,WeatherDisplay:10.37,2013-08-24 08:13:00,
2013-08-24 10:18:00,67.2,56.7,30.02,East,94,6.0,6.0,69,0.00,FEW,,0.00,536.0,WeatherDisplay:10.37,2013-08-24 08:18:00,
2013-08-24 10:23:00,66.3,56.2,30.02,ENE,69,5.0,5.0,70,0.00,OVC,,0.00,271.0,WeatherDisplay:10.37,2013-08-24 08:23:00,
2013-08-24 10:28:00,66.4,57.5,30.02,ENE,66,4.6,4.6,73,0.00,OVC,,0.00,264.0,WeatherDisplay:10.37,2013-08-24 08:28:00,
2013-08-24 10:33:00,66.9,56.8,30.02,ENE,67,4.6,4.6,70,0.00,SCT,,0.00,404.0,WeatherDisplay:10.37,2013-08-24 08:33:00,
2013-08-24 10:38:00,68.3,57.7,30.02,ESE,111,3.5,3.5,69,0.00,FEW,,0.00,650.0,WeatherDisplay:10.37,2013-08-24 08:38:00,
2013-08-24 10:43:00,69.1,57.3,30.02,ESE,106,10.0,10.0,66,0.00,FEW,,0.00,673.0,WeatherDisplay:10.37,2013-08-24 08:43:00,
2013-08-24 10:48:00,68.9,57.5,30.01,ENE,78,6.9,6.9,67,0.00,FEW,,0.00,698.0,WeatherDisplay:10.37,2013-08-24 08:48:00,
2013-08-24 10:53:00,68.9,56.6,30.01,NE,51,6.9,6.9,65,0.00,FEW,,0.00,708.0,WeatherDisplay:10.37,2013-08-24 08:53:00,
2013-08-24 10:58:00,70.4,57.2,30.01,ESE,115,7.0,7.0,63,0.00,SCT,,0.00,577.0,WeatherDisplay:10.37,2013-08-24 08:58:00,
2013-08-24 11:03:00,70.0,56.8,30.01,East,98,11.5,11.5,63,0.00,FEW,,0.00,700.0,WeatherDisplay:10.37,2013-08-24 09:03:00,
2013-08-24 11:08:00,70.2,56.6,30.01,SE,126,7.0,7.0,62,0.00,FEW,,0.00,728.0,WeatherDisplay:10.37,2013-08-24 09:08:00,
2013-08-24 11:13:00,70.7,57.0,30.01,ESE,121,7.0,7.0,62,0.00,FEW,,0.00,731.0,WeatherDisplay:10.37,2013-08-24 09:13:00,
2013-08-24 11:18:00,70.4,57.2,30.01,ENE,67,6.9,6.9,63,0.00,FEW,,0.00,724.0,WeatherDisplay:10.37,2013-08-24 09:18:00,
2013-08-24 11:23:00,70.0,55.9,30.01,ENE,59,12.7,12.7,61,0.00,FEW,,0.00,703.0,WeatherDisplay:10.37,2013-08-24 09:23:00,
2013-08-24 11:28:00,70.0,56.4,30.01,East,88,6.9,6.9,62,0.00,FEW,,0.00,693.0,WeatherDisplay:10.37,2013-08-24 09:28:00,
2013-08-24 11:33:00,70.6,56.9,30.00,NE,34,7.0,7.0,62,0.00,FEW,,0.00,698.0,WeatherDisplay:10.37,2013-08-24 09:33:00,
2013-08-24 11:38:00,71.3,58.5,30.00,ENE,76,9.2,9.2,64,0.00,FEW,,0.00,710.0,WeatherDisplay:10.37,2013-08-24 09:38:00,
2013-08-24 11:43:00,70.8,57.6,30.00,ESE,109,9.2,9.2,63,0.00,FEW,,0.00,673.0,WeatherDisplay:10.37,2013-08-24 09:43:00,
2013-08-24 11:48:00,70.8,57.6,30.00,East,92,4.6,4.6,63,0.00,FEW,,0.00,696.0,WeatherDisplay:10.37,2013-08-24 09:48:00,
2013-08-24 11:53:00,71.5,57.8,29.99,SSE,157,10.0,10.0,62,0.00,SCT,,0.00,621.0,WeatherDisplay:10.37,2013-08-24 09:53:00,
2013-08-24 11:58:00,70.9,56.8,29.99,ENE,65,8.1,8.1,61,0.00,SCT,,0.00,599.0,WeatherDisplay:10.37,2013-08-24 09:58:00,
2013-08-24 12:03:00,70.5,57.3,29.99,East,100,6.9,6.9,63,0.00,SCT,,0.00,519.0,WeatherDisplay:10.37,2013-08-24 10:03:00,
2013-08-24 12:08:00,70.5,55.9,29.99,East,80,8.1,8.1,60,0.00,SCT,,0.00,548.0,WeatherDisplay:10.37,2013-08-24 10:08:00,
2013-08-24 12:13:00,70.9,56.8,29.99,East,101,8.1,8.1,61,0.00,SCT,,0.00,519.0,WeatherDisplay:10.37,2013-08-24 10:13:00,
2013-08-24 12:18:00,71.4,58.1,29.99,ENE,75,8.1,8.1,63,0.00,FEW,,0.00,742.0,WeatherDisplay:10.37,2013-08-24 10:18:00,
2013-08-24 12:23:00,71.8,56.7,29.99,ESE,117,8.1,8.1,59,0.00,FEW,,0.00,752.0,WeatherDisplay:10.37,2013-08-24 10:23:00,
2013-08-24 12:28:00,73.0,57.8,29.99,ENE,57,8.1,8.1,59,0.00,FEW,,0.00,656.0,WeatherDisplay:10.37,2013-08-24 10:28:00,
2013-08-24 12:33:00,72.4,56.3,29.98,SE,124,4.6,4.6,57,0.00,SCT,,0.00,622.0,WeatherDisplay:10.37,2013-08-24 10:33:00,
2013-08-24 12:38:00,72.5,57.8,29.98,ENE,63,7.0,7.0,60,0.00,FEW,,0.00,809.0,WeatherDisplay:10.37,2013-08-24 10:38:00,
2013-08-24 12:43:00,73.0,55.4,29.98,ENE,60,8.1,8.1,54,0.00,FEW,,0.00,747.0,WeatherDisplay:10.37,2013-08-24 10:43:00,
2013-08-24 12:48:00,73.6,56.9,29.98,ESE,119,4.6,4.6,56,0.00,FEW,,0.00,793.0,WeatherDisplay:10.37,2013-08-24 10:48:00,
2013-08-24 12:53:00,74.2,57.0,29.98,ESE,102,5.0,5.0,55,0.00,OVC,,0.00,265.0,WeatherDisplay:10.37,2013-08-24 10:53:00,
2013-08-24 12:58:00,72.9,56.8,29.98,NE,46,9.2,9.2,57,0.00,CLR,,0.00,914.0,WeatherDisplay:10.37,2013-08-24 10:58:00,
2013-08-24 13:03:00,72.3,56.7,29.98,NE,53,10.4,10.4,58,0.00,OVC,,0.00,236.0,WeatherDisplay:10.37,2013-08-24 11:03:00,
2013-08-24 13:08:00,71.1,56.5,29.98,NE,53,10.4,10.4,60,0.00,OVC,,0.00,227.0,WeatherDisplay:10.37,2013-08-24 11:08:00,
2013-08-24 13:13:00,70.5,55.5,29.97,ENE,58,4.0,4.0,59,0.00,OVC,,0.00,221.0,WeatherDisplay:10.37,2013-08-24 11:13:00,
2013-08-24 13:18:00,70.5,56.4,29.97,NE,40,4.6,4.6,61,0.00,OVC,,0.00,200.0,WeatherDisplay:10.37,2013-08-24 11:18:00,
2013-08-24 13:23:00,71.4,56.3,29.97,NE,54,10.4,10.4,59,0.00,FEW,,0.00,838.0,WeatherDisplay:10.37,2013-08-24 11:23:00,
2013-08-24 13:28:00,72.1,56.5,29.97,NE,42,12.0,12.0,58,0.00,OVC,,0.00,216.0,WeatherDisplay:10.37,2013-08-24 11:28:00,
2013-08-24 13:33:00,71.6,56.5,29.97,NE,46,13.0,13.0,59,0.00,CLR,,0.00,867.0,WeatherDisplay:10.37,2013-08-24 11:33:00,
2013-08-24 13:38:00,72.7,56.6,29.97,ENE,78,10.4,10.4,57,0.00,CLR,,0.00,851.0,WeatherDisplay:10.37,2013-08-24 11:38:00,
2013-08-24 13:43:00,71.6,55.1,29.97,East,83,11.0,11.0,56,0.00,OVC,,0.00,167.0,WeatherDisplay:10.37,2013-08-24 11:43:00,
2013-08-24 13:48:00,71.6,56.0,29.97,NE,55,8.1,8.1,58,0.00,FEW,,0.00,745.0,WeatherDisplay:10.37,2013-08-24 11:48:00,
2013-08-24 13:53:00,72.7,55.1,29.96,East,86,10.4,10.4,54,0.00,FEW,,0.00,715.0,WeatherDisplay:10.37,2013-08-24 11:53:00,
2013-08-24 13:58:00,73.3,56.2,29.96,NE,48,10.0,10.0,55,0.00,FEW,,0.00,701.0,WeatherDisplay:10.37,2013-08-24 11:58:00,
2013-08-24 14:03:00,73.7,55.5,29.96,East,93,12.7,12.7,53,0.00,FEW,,0.00,701.0,WeatherDisplay:10.37,2013-08-24 12:03:00,
2013-08-24 14:08:00,73.6,55.9,29.96,NE,49,11.0,11.0,54,0.00,FEW,,0.00,694.0,WeatherDisplay:10.37,2013-08-24 12:08:00,
2013-08-24 14:13:00,74.2,56.0,29.95,ENE,76,4.6,4.6,53,0.00,FEW,,0.00,680.0,WeatherDisplay:10.37,2013-08-24 12:13:00,
2013-08-24 14:18:00,74.5,54.6,29.95,East,96,11.5,11.5,50,0.00,FEW,,0.00,680.0,WeatherDisplay:10.37,2013-08-24 12:18:00,
2013-08-24 14:23:00,74.6,55.8,29.95,ENE,69,11.5,11.5,52,0.00,FEW,,0.00,693.0,WeatherDisplay:10.37,2013-08-24 12:23:00,
2013-08-24 14:28:00,74.5,56.2,29.95,SE,133,8.0,8.0,53,0.00,FEW,,0.00,698.0,WeatherDisplay:10.37,2013-08-24 12:28:00,
2013-08-24 14:33:00,74.7,56.4,29.95,East,89,12.7,12.7,53,0.00,FEW,,0.00,679.0,WeatherDisplay:10.37,2013-08-24 12:33:00,
2013-08-24 14:38:00,74.6,55.8,29.95,NE,51,10.4,10.4,52,0.00,FEW,,0.00,141.0,WeatherDisplay:10.37,2013-08-24 12:38:00,
2013-08-24 14:43:00,73.6,54.9,29.95,SE,145,9.2,9.2,52,0.00,FEW,,0.00,671.0,WeatherDisplay:10.37,2013-08-24 12:43:00,
2013-08-24 14:48:00,74.4,56.7,29.95,ENE,77,8.1,8.1,54,0.00,FEW,,0.00,635.0,WeatherDisplay:10.37,2013-08-24 12:48:00,
2013-08-24 14:53:00,75.1,54.6,29.95,East,88,6.9,6.9,49,0.00,FEW,,0.00,638.0,WeatherDisplay:10.37,2013-08-24 12:53:00,
2013-08-24 14:58:00,74.9,53.9,29.95,NE,52,10.4,10.4,48,0.00,FEW,,0.00,640.0,WeatherDisplay:10.37,2013-08-24 12:58:00,
2013-08-24 15:03:00,74.4,54.5,29.94,NE,56,8.0,8.0,50,0.00,FEW,,0.00,640.0,WeatherDisplay:10.37,2013-08-24 13:03:00,
2013-08-24 15:08:00,73.4,54.2,29.94,ENE,68,10.4,10.4,51,0.00,FEW,,0.00,635.0,WeatherDisplay:10.37,2013-08-24 13:08:00,
2013-08-24 15:13:00,74.8,55.5,29.94,ENE,62,9.0,9.0,51,0.00,FEW,,0.00,624.0,WeatherDisplay:10.37,2013-08-24 13:13:00,
2013-08-24 15:18:00,74.8,54.4,29.94,NE,40,12.7,12.7,49,0.00,FEW,,0.00,626.0,WeatherDisplay:10.37,2013-08-24 13:18:00,
2013-08-24 15:23:00,74.8,55.5,29.93,NE,46,11.5,11.5,51,0.00,FEW,,0.00,621.0,WeatherDisplay:10.37,2013-08-24 13:23:00,
2013-08-24 15:28:00,75.0,54.5,29.93,NE,47,5.8,5.8,49,0.00,FEW,,0.00,613.0,WeatherDisplay:10.37,2013-08-24 13:28:00,
2013-08-24 15:33:00,75.8,54.7,29.93,East,101,10.4,10.4,48,0.00,SCT,,0.00,559.0,WeatherDisplay:10.37,2013-08-24 13:33:00,
2013-08-24 15:38:00,75.7,54.0,29.93,ENE,57,8.1,8.1,47,0.00,SCT,,0.00,522.0,WeatherDisplay:10.37,2013-08-24 13:38:00,
2013-08-24 15:43:00,75.4,53.8,29.93,East,98,8.0,8.0,47,0.00,SCT,,0.00,550.0,WeatherDisplay:10.37,2013-08-24 13:43:00,
2013-08-24 15:48:00,75.3,53.7,29.93,SE,141,6.0,6.0,47,0.00,FEW,,0.00,543.0,WeatherDisplay:10.37,2013-08-24 13:48:00,
2013-08-24 15:53:00,75.7,54.6,29.93,East,97,11.5,11.5,48,0.00,FEW,,0.00,538.0,WeatherDisplay:10.37,2013-08-24 13:53:00,
2013-08-24 15:58:00,75.7,52.8,29.92,ENE,74,8.1,8.1,45,0.00,FEW,,0.00,527.0,WeatherDisplay:10.37,2013-08-24 13:58:00,
2013-08-24 16:03:00,75.4,53.2,29.92,ENE,63,9.2,9.2,46,0.00,SCT,,0.00,512.0,WeatherDisplay:10.37,2013-08-24 14:03:00,
2013-08-24 16:08:00,75.6,53.4,29.92,ESE,102,10.4,10.4,46,0.00,SCT,,0.00,489.0,WeatherDisplay:10.37,2013-08-24 14:08:00,
2013-08-24 16:13:00,75.7,53.4,29.92,ENE,59,11.5,11.5,46,0.00,FEW,,0.00,499.0,WeatherDisplay:10.37,2013-08-24 14:13:00,
2013-08-24 16:18:00,75.6,53.9,29.92,ESE,121,9.0,9.0,47,0.00,SCT,,0.00,448.0,WeatherDisplay:10.37,2013-08-24 14:18:00,
2013-08-24 16:23:00,75.5,52.7,29.92,East,93,11.5,11.5,45,0.00,FEW,,0.00,473.0,WeatherDisplay:10.37,2013-08-24 14:23:00,
2013-08-24 16:28:00,75.6,53.9,29.92,ESE,107,6.9,6.9,47,0.00,SCT,,0.00,450.0,WeatherDisplay:10.37,2013-08-24 14:28:00,
2013-08-24 16:33:00,75.7,53.4,29.92,ESE,113,8.1,8.1,46,0.00,SCT,,0.00,403.0,WeatherDisplay:10.37,2013-08-24 14:33:00,
2013-08-24 16:38:00,75.6,53.9,29.92,East,94,9.2,9.2,47,0.00,SCT,,0.00,415.0,WeatherDisplay:10.37,2013-08-24 14:38:00,
2013-08-24 16:43:00,75.6,54.5,29.92,SE,136,7.0,7.0,48,0.00,SCT,,0.00,403.0,WeatherDisplay:10.37,2013-08-24 14:43:00,
2013-08-24 16:48:00,75.6,54.5,29.92,NE,40,7.0,7.0,48,0.00,FEW,,0.00,438.0,WeatherDisplay:10.37,2013-08-24 14:48:00,
2013-08-24 16:53:00,74.7,54.3,29.92,NE,48,12.0,12.0,49,0.00,BKN,,0.00,158.0,WeatherDisplay:10.37,2013-08-24 14:53:00,
2013-08-24 16:58:00,73.8,55.1,29.91,ESE,103,10.4,10.4,52,0.00,BKN,,0.00,315.0,WeatherDisplay:10.37,2013-08-24 14:58:00,
2013-08-24 17:03:00,73.5,54.8,29.91,ENE,62,7.0,7.0,52,0.00,OVC,,0.00,120.0,WeatherDisplay:10.37,2013-08-24 15:03:00,
2013-08-24 17:08:00,73.2,54.5,29.91,ENE,66,9.2,9.2,52,0.00,OVC,,0.00,109.0,WeatherDisplay:10.37,2013-08-24 15:08:00,
2013-08-24 17:13:00,73.3,54.6,29.91,NE,41,10.4,10.4,52,0.00,SCT,,0.00,366.0,WeatherDisplay:10.37,2013-08-24 15:13:00,
2013-08-24 17:18:00,74.1,55.9,29.91,NE,51,9.2,9.2,53,0.00,FEW,,0.00,364.0,WeatherDisplay:10.37,2013-08-24 15:18:00,
2013-08-24 17:23:00,74.7,55.9,29.91,NE,45,9.2,9.2,52,0.00,FEW,,0.00,404.0,WeatherDisplay:10.37,2013-08-24 15:23:00,
2013-08-24 17:28:00,74.7,55.9,29.90,NE,46,14.0,14.0,52,0.00,SCT,,0.00,301.0,WeatherDisplay:10.37,2013-08-24 15:28:00,
2013-08-24 17:33:00,74.2,53.8,29.90,ENE,61,13.8,13.8,49,0.00,SCT,,0.00,322.0,WeatherDisplay:10.37,2013-08-24 15:33:00,
2013-08-24 17:38:00,74.0,54.2,29.90,ENE,69,11.5,11.5,50,0.00,SCT,,0.00,195.0,WeatherDisplay:10.37,2013-08-24 15:38:00,
2013-08-24 17:43:00,73.8,54.5,29.90,NE,54,11.5,11.5,51,0.00,BKN,,0.00,158.0,WeatherDisplay:10.37,2013-08-24 15:43:00,
2013-08-24 17:48:00,73.3,55.1,29.90,ENE,75,10.4,10.4,53,0.00,SCT,,0.00,260.0,WeatherDisplay:10.37,2013-08-24 15:48:00,
2013-08-24 17:53:00,73.6,55.4,29.90,NE,49,12.0,12.0,53,0.00,SCT,,0.00,232.0,WeatherDisplay:10.37,2013-08-24 15:53:00,
2013-08-24 17:58:00,73.5,55.3,29.90,East,92,16.1,16.1,53,0.00,OVC,,0.00,102.0,WeatherDisplay:10.37,2013-08-24 15:58:00,
2013-08-24 18:03:00,72.8,55.2,29.90,ENE,63,11.5,11.5,54,0.00,OVC,,0.00,134.0,WeatherDisplay:10.37,2013-08-24 16:03:00,
2013-08-24 18:08:00,72.2,55.1,29.90,ENE,63,9.2,9.2,55,0.00,OVC,,0.00,81.0,WeatherDisplay:10.37,2013-08-24 16:08:00,
2013-08-24 18:13:00,71.8,54.8,29.90,NE,55,10.4,10.4,55,0.00,OVC,,0.00,114.0,WeatherDisplay:10.37,2013-08-24 16:13:00,
2013-08-24 18:18:00,71.6,55.1,29.90,ENE,57,9.2,9.2,56,0.00,OVC,,0.00,97.0,WeatherDisplay:10.37,2013-08-24 16:18:00,
2013-08-24 18:23:00,71.2,55.7,29.90,NE,51,9.2,9.2,58,0.00,OVC,,0.00,77.0,WeatherDisplay:10.37,2013-08-24 16:23:00,
2013-08-24 18:28:00,71.1,55.6,29.90,NE,49,6.9,6.9,58,0.00,OVC,,0.00,69.0,WeatherDisplay:10.37,2013-08-24 16:28:00,
2013-08-24 18:33:00,70.7,55.7,29.90,ENE,59,6.0,6.0,59,0.00,OVC,,0.00,88.0,WeatherDisplay:10.37,2013-08-24 16:33:00,
2013-08-24 18:38:00,70.6,56.0,29.90,ENE,73,7.0,7.0,60,0.00,OVC,,0.00,74.0,WeatherDisplay:10.37,2013-08-24 16:38:00,
2013-08-24 18:43:00,70.6,55.1,29.89,ENE,74,11.5,11.5,58,0.00,OVC,,0.00,77.0,WeatherDisplay:10.37,2013-08-24 16:43:00,
2013-08-24 18:48:00,70.7,55.2,29.89,ENE,62,9.2,9.2,58,0.00,OVC,,0.00,76.0,WeatherDisplay:10.37,2013-08-24 16:48:00,
2013-08-24 18:53:00,70.6,55.1,29.89,NE,44,10.4,10.4,58,0.00,BKN,,0.00,79.0,WeatherDisplay:10.37,2013-08-24 16:53:00,
2013-08-24 18:58:00,70.4,54.9,29.89,NE,55,4.6,4.6,58,0.00,BKN,,0.00,70.0,WeatherDisplay:10.37,2013-08-24 16:58:00,
2013-08-24 19:03:00,70.3,54.8,29.89,NE,48,10.4,10.4,58,0.00,BKN,,0.00,63.0,WeatherDisplay:10.37,2013-08-24 17:03:00,
2013-08-24 19:08:00,70.0,55.0,29.89,NE,54,6.9,6.9,59,0.00,BKN,,0.00,54.0,WeatherDisplay:10.37,2013-08-24 17:08:00,
2013-08-24 19:13:00,70.0,54.5,29.89,NE,56,12.0,12.0,58,0.00,BKN,,0.00,47.0,WeatherDisplay:10.37,2013-08-24 17:13:00,
2013-08-24 19:18:00,69.7,54.7,29.89,NE,55,10.4,10.4,59,0.00,BKN,,0.00,40.0,WeatherDisplay:10.37,2013-08-24 17:18:00,
2013-08-24 19:23:00,69.4,54.4,29.89,NE,53,8.1,8.1,59,0.00,OVC,,0.00,33.0,WeatherDisplay:10.37,2013-08-24 17:23:00,
2013-08-24 19:28:00,69.3,54.4,29.89,ENE,62,10.4,10.4,59,0.00,OVC,,0.00,28.0,WeatherDisplay:10.37,2013-08-24 17:28:00,
2013-08-24 19:33:00,68.9,54.4,29.89,ENE,63,8.1,8.1,60,0.00,OVC,,0.00,23.0,WeatherDisplay:10.37,2013-08-24 17:33:00,
2013-08-24 19:38:00,68.5,54.1,29.89,ENE,57,5.8,5.8,60,0.00,OVC,,0.00,16.0,WeatherDisplay:10.37,2013-08-24 17:38:00,
2013-08-24 19:43:00,68.3,54.3,29.89,NE,44,9.2,9.2,61,0.00,OVC,,0.00,11.0,WeatherDisplay:10.37,2013-08-24 17:43:00,
2013-08-24 19:48:00,68.2,54.2,29.89,ENE,62,7.0,7.0,61,0.00,OVC,,0.00,7.0,WeatherDisplay:10.37,2013-08-24 17:48:00,
2013-08-24 19:53:00,67.9,54.0,29.90,NE,55,4.6,4.6,61,0.00,OVC,,0.00,5.0,WeatherDisplay:10.37,2013-08-24 17:53:00,
2013-08-24 19:58:00,67.8,53.9,29.89,NE,51,5.8,5.8,61,0.00,OVC,,0.00,0.0,WeatherDisplay:10.37,2013-08-24 17:58:00,
2013-08-24 20:03:00,67.6,53.7,29.90,ENE,57,6.0,6.0,61,0.00,OVC,,0.00,0.0,WeatherDisplay:10.37,2013-08-24 18:03:00,
2013-08-24 20:08:00,67.4,53.9,29.90,ENE,69,7.0,7.0,62,0.00,OVC,,0.00,0.0,WeatherDisplay:10.37,2013-08-24 18:08:00,
2013-08-24 20:13:00,67.2,53.7,29.90,ENE,69,4.6,4.6,62,0.00,OVC,,0.00,0.0,WeatherDisplay:10.37,2013-08-24 18:13:00,
2013-08-24 20:18:00,66.8,53.4,29.90,ENE,71,4.0,4.0,62,0.00,OVC,,0.00,0.0,WeatherDisplay:10.37,2013-08-24 18:18:00,
2013-08-24 20:23:00,66.7,53.7,29.90,East,96,4.0,4.0,63,0.00,OVC,,0.00,0.0,WeatherDisplay:10.37,2013-08-24 18:23:00,
2013-08-24 20:28:00,66.6,53.6,29.90,East,86,5.8,5.8,63,0.00,OVC,,0.00,0.0,WeatherDisplay:10.37,2013-08-24 18:28:00,
2013-08-24 20:33:00,66.2,53.7,29.90,ENE,77,3.5,3.5,64,0.00,CLR,,0.00,0.0,WeatherDisplay:10.37,2013-08-24 18:33:00,
2013-08-24 20:38:00,66.0,53.5,29.90,ENE,77,4.0,4.0,64,0.00,CLR,,0.00,0.0,WeatherDisplay:10.37,2013-08-24 18:38:00,
2013-08-24 20:43:00,65.7,53.6,29.91,ENE,75,3.5,3.5,65,0.00,CLR,,0.00,0.0,WeatherDisplay:10.37,2013-08-24 18:43:00,
2013-08-24 20:48:00,65.4,53.7,29.90,ENE,60,3.5,3.5,66,0.00,CLR,,0.00,0.0,WeatherDisplay:10.37,2013-08-24 18:48:00,
2013-08-24 20:53:00,65.4,53.3,29.91,ENE,61,5.8,5.8,65,0.00,CLR,,0.00,0.0,WeatherDisplay:10.37,2013-08-24 18:53:00,
2013-08-24 20:58:00,65.3,53.6,29.91,ENE,70,4.6,4.6,66,0.00,CLR,,0.00,0.0,WeatherDisplay:10.37,2013-08-24 18:58:00,
2013-08-24 21:03:00,65.3,53.6,29.91,ENE,78,7.0,7.0,66,0.00,CLR,,0.00,0.0,WeatherDisplay:10.37,2013-08-24 19:03:00,
2013-08-24 21:08:00,65.2,53.6,29.91,ENE,67,4.6,4.6,66,0.00,CLR,,0.00,0.0,WeatherDisplay:10.37,2013-08-24 19:08:00,
2013-08-24 21:13:00,65.1,53.5,29.91,East,83,8.0,8.0,66,0.00,CLR,,0.00,0.0,WeatherDisplay:10.37,2013-08-24 19:13:00,
2013-08-24 21:18:00,65.1,53.0,29.91,East,87,4.6,4.6,65,0.00,CLR,,0.00,0.0,WeatherDisplay:10.37,2013-08-24 19:18:00,
2013-08-24 21:23:00,64.8,53.2,29.91,East,87,7.0,7.0,66,0.00,CLR,,0.00,0.0,WeatherDisplay:10.37,2013-08-24 19:23:00,
2013-08-24 21:28:00,64.6,53.0,29.91,East,80,4.6,4.6,66,0.00,CLR,,0.00,0.0,WeatherDisplay:10.37,2013-08-24 19:28:00,
2013-08-24 21:33:00,64.5,52.9,29.91,ENE,78,8.1,8.1,66,0.00,CLR,,0.00,0.0,WeatherDisplay:10.37,2013-08-24 19:33:00,
2013-08-24 21:38:00,64.4,52.8,29.91,ENE,69,4.0,4.0,66,0.00,CLR,,0.00,0.0,WeatherDisplay:10.37,2013-08-24 19:38:00,
2013-08-24 21:43:00,64.2,52.6,29.90,East,79,8.0,8.0,66,0.00,CLR,,0.00,0.0,WeatherDisplay:10.37,2013-08-24 19:43:00,
2013-08-24 21:48:00,64.6,52.6,29.90,East,82,8.1,8.1,65,0.00,CLR,,0.00,0.0,WeatherDisplay:10.37,2013-08-24 19:48:00,
2013-08-24 21:53:00,64.9,52.4,29.90,East,85,9.2,9.2,64,0.00,CLR,,0.00,0.0,WeatherDisplay:10.37,2013-08-24 19:53:00,
2013-08-24 21:58:00,65.0,52.1,29.90,ENE,64,10.4,10.4,63,0.00,CLR,,0.00,0.0,WeatherDisplay:10.37,2013-08-24 19:58:00,
2013-08-24 22:03:00,64.9,52.0,29.90,East,101,7.0,7.0,63,0.00,CLR,,0.00,0.0,WeatherDisplay:10.37,2013-08-24 20:03:00,
2013-08-24 22:08:00,64.8,51.9,29.90,East,87,7.0,7.0,63,0.00,CLR,,0.00,0.0,WeatherDisplay:10.37,2013-08-24 20:08:00,
2013-08-24 22:13:00,64.7,52.2,29.91,NE,56,9.2,9.2,64,0.00,CLR,,0.00,0.0,WeatherDisplay:10.37,2013-08-24 20:13:00,
2013-08-24 22:18:00,64.6,52.1,29.91,East,86,9.2,9.2,64,0.00,CLR,,0.00,0.0,WeatherDisplay:10.37,2013-08-24 20:18:00,
2013-08-24 22:23:00,64.6,52.1,29.91,ENE,75,9.2,9.2,64,0.00,CLR,,0.00,0.0,WeatherDisplay:10.37,2013-08-24 20:23:00,
2013-08-24 22:28:00,64.4,52.0,29.91,ENE,67,9.2,9.2,64,0.00,CLR,,0.00,0.0,WeatherDisplay:10.37,2013-08-24 20:28:00,
2013-08-24 22:33:00,64.1,52.1,29.91,ENE,65,8.1,8.1,65,0.00,CLR,,0.00,0.0,WeatherDisplay:10.37,2013-08-24 20:33:00,
2013-08-24 22:38:00,64.0,52.0,29.91,NE,55,9.2,9.2,65,0.00,CLR,,0.00,0.0,WeatherDisplay:10.37,2013-08-24 20:38:00,
2013-08-24 22:43:00,64.0,52.0,29.91,ENE,64,9.2,9.2,65,0.00,CLR,,0.00,0.0,WeatherDisplay:10.37,2013-08-24 20:43:00,
2013-08-24 22:48:00,63.9,51.9,29.91,East,83,7.0,7.0,65,0.00,CLR,,0.00,0.0,WeatherDisplay:10.37,2013-08-24 20:48:00,
2013-08-24 22:53:00,63.8,52.2,29.91,ESE,113,6.0,6.0,66,0.00,CLR,,0.00,0.0,WeatherDisplay:10.37,2013-08-24 20:53:00,
2013-08-24 22:58:00,63.4,51.8,29.91,East,88,4.0,4.0,66,0.00,CLR,,0.00,0.0,WeatherDisplay:10.37,2013-08-24 20:58:00,
2013-08-24 23:03:00,63.4,51.8,29.91,East,92,6.0,6.0,66,0.00,CLR,,0.00,0.0,WeatherDisplay:10.37,2013-08-24 21:03:00,
2013-08-24 23:08:00,63.2,52.1,29.91,ESE,105,3.5,3.5,67,0.00,CLR,,0.00,0.0,WeatherDisplay:10.37,2013-08-24 21:08:00,
2013-08-24 23:13:00,62.8,52.1,29.92,East,101,3.5,3.5,68,0.00,CLR,,0.00,0.0,WeatherDisplay:10.37,2013-08-24 21:13:00,
2013-08-24 23:18:00,62.5,52.2,29.91,East,100,2.3,2.3,69,0.00,CLR,,0.00,0.0,WeatherDisplay:10.37,2013-08-24 21:18:00,
2013-08-24 23:23:00,62.4,52.1,29.91,East,90,5.8,5.8,69,0.00,CLR,,0.00,0.0,WeatherDisplay:10.37,2013-08-24 21:23:00,
2013-08-24 23:28:00,62.1,51.8,29.91,ENE,72,5.0,5.0,69,0.00,CLR,,0.00,0.0,WeatherDisplay:10.37,2013-08-24 21:28:00,
2013-08-24 23:33:00,61.7,52.2,29.91,ENE,71,4.6,4.6,71,0.00,CLR,,0.00,0.0,WeatherDisplay:10.37,2013-08-24 21:33:00,
2013-08-24 23:38:00,61.8,52.3,29.92,East,94,4.0,4.0,71,0.00,CLR,,0.00,0.0,WeatherDisplay:10.37,2013-08-24 21:38:00,
2013-08-24 23:43:00,61.8,52.3,29.91,East,85,5.0,5.0,71,0.00,CLR,,0.00,0.0,WeatherDisplay:10.37,2013-08-24 21:43:00,
2013-08-24 23:48:00,61.7,52.2,29.91,ENE,76,4.0,4.0,71,0.00,CLR,,0.00,0.0,WeatherDisplay:10.37,2013-08-24 21:48:00,
2013-08-24 23:53:00,61.8,52.3,29.91,East,82,5.8,5.8,71,0.00,CLR,,0.00,0.0,WeatherDisplay:10.37,2013-08-24 21:53:00,
2013-08-24 23:58:00,62.0,52.5,29.91,ENE,78,4.6,4.6,71,0.00,CLR,,0.00,0.0,WeatherDisplay:10.37,2013-08-24 21:58:00,